createdAt,value
2022-08-22T00:02:33.639Z,5.55
2022-08-22T00:03:12.559Z,4.35
2022-08-22T00:06:03.227Z,5.50
2022-08-22T00:09:20.516Z,5.40
2022-08-22T00:12:35.017Z,5.00
2022-08-22T00:16:08.576Z,6.18
2022-08-22T00:19:41.619Z,5.47
2022-08-22T00:23:06.941Z,6.15
2022-08-22T00:26:21.092Z,5.75
2022-08-22T00:29:48.096Z,6.05
2022-08-22T00:32:59.000Z,5.63
2022-08-22T00:36:28.271Z,7.60
2022-08-22T00:39:42.266Z,8.00
2022-08-22T00:43:05.718Z,7.55
2022-08-22T00:46:25.953Z,6.85
2022-08-22T00:50:19.684Z,7.47
2022-08-22T00:53:39.597Z,8.32
2022-08-22T00:56:41.564Z,7.43
2022-08-22T01:00:11.338Z,7.85
2022-08-22T01:03:31.043Z,8.18
2022-08-22T01:07:04.668Z,9.10
2022-08-22T01:10:29.091Z,8.85
2022-08-22T01:13:49.719Z,8.68
2022-08-22T01:17:26.677Z,8.07
2022-08-22T01:20:59.160Z,8.90
2022-08-22T01:24:18.858Z,7.85
2022-08-22T01:27:58.987Z,7.57
2022-08-22T01:31:46.788Z,6.05
2022-08-22T01:35:16.462Z,5.50
2022-08-22T01:38:36.694Z,5.05
2022-08-22T01:42:02.748Z,5.15
2022-08-22T01:45:34.845Z,4.47
2022-08-22T01:48:45.973Z,5.50
2022-08-22T01:52:03.996Z,6.82
2022-08-22T01:55:36.453Z,6.38
2022-08-22T01:58:45.556Z,5.88
2022-08-22T02:02:00.271Z,5.78
2022-08-22T02:05:18.335Z,5.97
2022-08-22T02:08:47.178Z,6.20
2022-08-22T02:12:22.808Z,6.72
2022-08-22T02:15:41.725Z,6.75
2022-08-22T02:19:02.712Z,6.70
2022-08-22T02:22:27.000Z,6.53
2022-08-22T02:25:34.347Z,6.43
2022-08-22T02:28:57.491Z,6.72
2022-08-22T02:32:10.449Z,5.93
2022-08-22T02:35:12.383Z,5.70
2022-08-22T02:38:38.875Z,5.90
2022-08-22T02:42:17.948Z,5.35
2022-08-22T02:45:28.917Z,6.03
2022-08-22T02:48:39.165Z,5.65
2022-08-22T02:51:56.175Z,5.25
2022-08-22T02:55:08.631Z,4.97
2022-08-22T02:58:45.323Z,5.03
2022-08-22T03:01:48.248Z,4.75
2022-08-22T03:05:00.740Z,5.22
2022-08-22T03:08:29.429Z,4.55
2022-08-22T03:11:38.434Z,4.85
2022-08-22T03:15:07.488Z,4.57
2022-08-22T03:18:12.397Z,4.40
2022-08-22T03:21:32.880Z,4.82
2022-08-22T03:24:49.806Z,4.10
2022-08-22T03:27:59.280Z,4.72
2022-08-22T03:31:17.779Z,4.30
2022-08-22T03:34:22.700Z,3.85
2022-08-22T03:37:35.908Z,3.83
2022-08-22T03:41:07.752Z,3.88
2022-08-22T03:44:12.755Z,3.70
2022-08-22T03:47:45.346Z,3.92
2022-08-22T03:51:22.661Z,4.10
2022-08-22T03:54:33.476Z,4.00
2022-08-22T03:58:27.701Z,4.63
2022-08-22T04:01:52.168Z,4.57
2022-08-22T04:05:28.462Z,3.77
2022-08-22T04:08:57.705Z,3.90
2022-08-22T04:12:04.745Z,4.00
2022-08-22T04:15:43.984Z,4.32
2022-08-22T04:19:17.196Z,3.97
2022-08-22T04:22:48.953Z,4.13
2022-08-22T04:25:58.488Z,4.00
2022-08-22T04:29:27.288Z,3.65
2022-08-22T04:32:47.300Z,4.25
2022-08-22T04:36:04.946Z,3.97
2022-08-22T04:39:23.325Z,4.20
2022-08-22T04:42:34.931Z,4.70
2022-08-22T04:45:47.599Z,4.03
2022-08-22T04:49:07.982Z,4.40
2022-08-22T04:52:12.872Z,4.90
2022-08-22T04:56:07.060Z,4.57
2022-08-22T04:59:17.024Z,4.85
2022-08-22T05:02:22.916Z,4.68
2022-08-22T05:05:36.032Z,5.10
2022-08-22T05:08:40.330Z,4.68
2022-08-22T05:11:43.608Z,4.63
2022-08-22T05:14:51.489Z,4.57
2022-08-22T05:18:08.877Z,4.60
2022-08-22T05:24:31.625Z,4.70
2022-08-22T05:27:38.879Z,4.15
2022-08-22T05:30:42.944Z,5.00
2022-08-22T05:37:05.215Z,4.60
2022-08-22T05:40:29.090Z,5.05
2022-08-22T05:43:36.820Z,4.38
2022-08-22T05:46:44.335Z,4.88
2022-08-22T05:50:02.211Z,4.80
2022-08-22T05:53:26.860Z,4.40
2022-08-22T05:56:38.029Z,4.13
2022-08-22T05:59:44.045Z,4.63
2022-08-22T06:03:03.169Z,4.70
2022-08-22T06:06:20.225Z,4.90
2022-08-22T06:09:25.106Z,4.68
2022-08-22T06:12:46.268Z,5.05
2022-08-22T06:16:05.446Z,5.25
2022-08-22T06:19:19.202Z,4.95
2022-08-22T06:25:34.265Z,4.88
2022-08-22T06:28:54.967Z,5.25
2022-08-22T06:32:00.299Z,5.00
2022-08-22T06:35:13.334Z,5.43
2022-08-22T06:38:16.601Z,5.45
2022-08-22T06:41:21.274Z,4.70
2022-08-22T06:44:35.785Z,4.82
2022-08-22T06:47:50.154Z,5.00
2022-08-22T06:50:57.047Z,4.40
2022-08-22T06:54:02.652Z,4.72
2022-08-22T06:57:06.240Z,4.57
2022-08-22T07:00:13.237Z,4.85
2022-08-22T07:03:38.342Z,4.75
2022-08-22T07:06:47.557Z,4.43
2022-08-22T07:09:51.257Z,4.20
2022-08-22T07:12:56.414Z,4.28
2022-08-22T07:15:59.590Z,4.00
2022-08-22T07:19:01.957Z,3.90
2022-08-22T07:22:22.392Z,4.00
2022-08-22T07:25:25.125Z,4.20
2022-08-22T07:28:51.186Z,3.60
2022-08-22T07:32:10.240Z,4.15
2022-08-22T07:35:23.118Z,3.63
2022-08-22T07:38:31.161Z,3.80
2022-08-22T07:41:46.813Z,3.40
2022-08-22T07:45:16.297Z,3.90
2022-08-22T07:48:26.448Z,3.30
2022-08-22T07:51:36.560Z,4.20
2022-08-22T07:54:59.061Z,4.13
2022-08-22T07:58:04.708Z,4.38
2022-08-22T08:01:10.069Z,3.60
2022-08-22T08:04:17.144Z,3.67
2022-08-22T08:07:23.416Z,3.40
2022-08-22T08:10:34.907Z,3.42
2022-08-22T08:13:42.044Z,3.25
2022-08-22T08:17:01.993Z,3.80
2022-08-22T08:20:12.346Z,3.55
2022-08-22T08:23:15.046Z,3.55
2022-08-22T08:26:30.931Z,3.05
2022-08-22T08:29:33.821Z,3.05
2022-08-22T08:36:02.390Z,2.83
2022-08-22T08:39:28.567Z,3.10
2022-08-22T08:43:20.715Z,3.38
2022-08-22T08:46:50.222Z,3.42
2022-08-22T08:50:44.581Z,3.47
2022-08-22T08:54:07.513Z,2.90
2022-08-22T08:57:45.909Z,3.13
2022-08-22T09:01:11.110Z,3.03
2022-08-22T09:04:37.141Z,3.20
2022-08-22T09:08:15.047Z,3.13
2022-08-22T09:11:29.134Z,3.22
2022-08-22T09:14:52.761Z,3.08
2022-08-22T09:18:30.223Z,3.22
2022-08-22T09:21:51.046Z,3.22
2022-08-22T09:25:38.535Z,2.55
2022-08-22T09:29:13.061Z,2.72
2022-08-22T09:32:27.264Z,2.50
2022-08-22T09:35:56.312Z,3.10
2022-08-22T09:39:17.685Z,3.05
2022-08-22T09:42:44.941Z,3.00
2022-08-22T09:46:15.401Z,2.50
2022-08-22T09:49:35.966Z,3.03
2022-08-22T09:53:08.562Z,2.90
2022-08-22T09:56:22.134Z,2.97
2022-08-22T09:59:47.957Z,2.60
2022-08-22T10:03:23.152Z,3.10
2022-08-22T10:06:30.913Z,3.05
2022-08-22T10:09:47.304Z,2.70
2022-08-22T10:13:32.024Z,2.42
2022-08-22T10:16:51.432Z,2.22
2022-08-22T10:20:25.778Z,2.40
2022-08-22T10:23:48.089Z,2.58
2022-08-22T10:26:54.364Z,2.50
2022-08-22T10:30:10.217Z,2.30
2022-08-22T10:33:42.043Z,2.42
2022-08-22T10:37:46.139Z,2.50
2022-08-22T10:40:59.360Z,2.15
2022-08-22T10:44:18.815Z,2.40
2022-08-22T10:47:28.304Z,2.50
2022-08-22T10:50:38.313Z,2.45
2022-08-22T10:53:59.373Z,2.10
2022-08-22T10:57:22.637Z,2.28
2022-08-22T11:00:50.061Z,2.47
2022-08-22T11:04:12.647Z,2.20
2022-08-22T11:07:37.386Z,2.20
2022-08-22T11:10:59.726Z,1.80
2022-08-22T11:14:27.352Z,2.20
2022-08-22T11:17:54.185Z,2.40
2022-08-22T11:21:11.075Z,2.38
2022-08-22T11:24:53.975Z,2.88
2022-08-22T11:28:29.963Z,2.60
2022-08-22T11:32:05.973Z,2.55
2022-08-22T11:35:22.500Z,2.60
2022-08-22T11:38:45.494Z,2.22
2022-08-22T11:45:16.369Z,2.47
2022-08-22T11:48:59.177Z,2.33
2022-08-22T11:52:13.805Z,2.17
2022-08-22T11:55:18.403Z,2.58
2022-08-22T11:58:28.761Z,2.00
2022-08-22T12:01:40.866Z,2.22
2022-08-22T12:04:52.550Z,2.22
2022-08-22T12:08:05.322Z,2.70
2022-08-22T12:11:10.929Z,2.60
2022-08-22T12:14:26.860Z,2.45
2022-08-22T12:17:55.698Z,2.83
2022-08-22T12:21:21.599Z,2.40
2022-08-22T12:25:03.627Z,2.65
2022-08-22T12:28:15.754Z,2.47
2022-08-22T12:31:59.475Z,3.05
2022-08-22T12:35:40.354Z,3.17
2022-08-22T12:38:56.842Z,2.50
2022-08-22T12:42:17.371Z,2.85
2022-08-22T12:45:28.934Z,3.17
2022-08-22T12:49:08.172Z,2.30
2022-08-22T12:52:29.183Z,2.60
2022-08-22T12:55:55.820Z,2.53
2022-08-22T12:59:20.229Z,2.63
2022-08-22T13:02:29.782Z,2.50
2022-08-22T13:05:40.719Z,2.65
2022-08-22T13:08:45.780Z,2.50
2022-08-22T13:11:52.241Z,2.50
2022-08-22T13:15:06.646Z,2.17
2022-08-22T13:18:30.302Z,2.70
2022-08-22T13:21:38.373Z,2.50
2022-08-22T13:24:56.168Z,2.80
2022-08-22T13:28:03.804Z,2.72
2022-08-22T13:31:08.670Z,2.22
2022-08-22T13:34:39.604Z,2.33
2022-08-22T13:37:50.009Z,2.38
2022-08-22T13:40:54.190Z,2.35
2022-08-22T13:44:05.267Z,2.70
2022-08-22T13:47:21.262Z,2.83
2022-08-22T13:50:52.950Z,2.28
2022-08-22T13:54:11.235Z,2.60
2022-08-22T13:57:28.614Z,2.47
2022-08-22T14:00:58.819Z,2.55
2022-08-22T14:04:28.502Z,2.60
2022-08-22T14:07:48.801Z,3.08
2022-08-22T14:11:24.841Z,2.30
2022-08-22T14:14:33.335Z,2.37
2022-08-22T14:17:42.860Z,2.05
2022-08-22T14:20:47.709Z,2.22
2022-08-22T14:23:53.342Z,2.40
2022-08-22T14:27:05.326Z,2.50
2022-08-22T14:30:22.039Z,2.20
2022-08-22T14:33:40.011Z,2.47
2022-08-22T14:36:48.733Z,2.70
2022-08-22T14:39:59.605Z,2.40
2022-08-22T14:43:15.612Z,2.80
2022-08-22T14:46:36.540Z,2.53
2022-08-22T14:49:57.721Z,2.25
2022-08-22T14:53:24.959Z,2.65
2022-08-22T14:56:29.697Z,2.15
2022-08-22T14:59:45.615Z,2.60
2022-08-22T15:02:49.137Z,2.33
2022-08-22T15:05:59.234Z,2.47
2022-08-22T15:09:07.773Z,2.42
2022-08-22T15:12:34.873Z,2.20
2022-08-22T15:15:52.790Z,2.42
2022-08-22T15:18:57.476Z,2.85
2022-08-22T15:22:19.000Z,2.33
2022-08-22T15:25:21.594Z,2.33
2022-08-22T15:28:26.610Z,2.20
2022-08-22T15:31:46.429Z,2.40
2022-08-22T15:34:52.334Z,2.30
2022-08-22T15:37:56.909Z,2.63
2022-08-22T15:41:36.558Z,2.35
2022-08-22T15:44:44.358Z,2.50
2022-08-22T15:47:52.150Z,2.30
2022-08-22T15:50:57.218Z,2.22
2022-08-22T15:54:13.104Z,2.47
2022-08-22T15:57:34.702Z,2.50
2022-08-22T16:00:45.149Z,2.30
2022-08-22T16:04:07.462Z,2.47
2022-08-22T16:07:26.470Z,2.75
2022-08-22T16:10:34.371Z,2.60
2022-08-22T16:13:40.543Z,2.42
2022-08-22T16:16:56.775Z,2.45
2022-08-22T16:20:07.746Z,2.55
2022-08-22T16:23:12.240Z,2.65
2022-08-22T16:26:39.657Z,2.88
2022-08-22T16:29:42.389Z,2.75
2022-08-22T16:32:53.144Z,2.85
2022-08-22T16:36:15.528Z,2.53
2022-08-22T16:39:37.938Z,2.40
2022-08-22T16:42:44.577Z,2.50
2022-08-22T16:45:47.640Z,2.30
2022-08-22T16:49:00.896Z,2.60
2022-08-22T16:52:21.279Z,2.67
2022-08-22T16:55:29.152Z,2.30
2022-08-22T16:58:50.234Z,2.30
2022-08-22T17:02:18.223Z,2.53
2022-08-22T17:05:55.006Z,2.30
2022-08-22T17:09:03.145Z,2.30
2022-08-22T17:12:30.212Z,2.10
2022-08-22T17:15:59.381Z,2.20
2022-08-22T17:19:17.440Z,2.50
2022-08-22T17:22:37.694Z,2.78
2022-08-22T17:26:17.428Z,2.40
2022-08-22T17:29:58.057Z,2.42
2022-08-22T17:33:35.273Z,2.63
2022-08-22T17:37:03.651Z,2.28
2022-08-22T17:40:30.242Z,2.30
2022-08-22T17:43:55.706Z,2.50
2022-08-22T17:47:25.714Z,2.47
2022-08-22T17:50:40.005Z,2.70
2022-08-22T17:53:50.332Z,2.67
2022-08-22T17:57:13.712Z,2.97
2022-08-22T18:00:22.858Z,2.67
2022-08-22T18:03:33.560Z,3.00
2022-08-22T18:06:38.807Z,3.05
2022-08-22T18:09:51.594Z,2.88
2022-08-22T18:13:04.821Z,2.97
2022-08-22T18:16:20.095Z,3.55
2022-08-22T18:19:39.757Z,2.90
2022-08-22T18:22:49.317Z,3.47
2022-08-22T18:26:07.068Z,3.58
2022-08-22T18:29:33.176Z,3.25
2022-08-22T18:32:47.963Z,3.15
2022-08-22T18:35:55.217Z,3.80
2022-08-22T18:39:20.322Z,3.80
2022-08-22T18:42:39.554Z,3.65
2022-08-22T18:45:47.629Z,3.90
2022-08-22T18:49:14.269Z,3.60
2022-08-22T18:52:28.755Z,3.97
2022-08-22T18:55:53.875Z,3.92
2022-08-22T18:59:13.164Z,4.10
2022-08-22T19:02:40.151Z,3.90
2022-08-22T19:06:19.886Z,4.28
2022-08-22T19:09:40.870Z,3.65
2022-08-22T19:13:03.684Z,3.55
2022-08-22T19:16:47.779Z,3.60
2022-08-22T19:20:01.293Z,3.77
2022-08-22T19:23:34.399Z,3.55
2022-08-22T19:26:44.980Z,3.65
2022-08-22T19:29:53.448Z,3.97
2022-08-22T19:32:59.573Z,4.05
2022-08-22T19:36:12.843Z,4.07
2022-08-22T19:39:54.593Z,4.35
2022-08-22T19:42:56.834Z,4.03
2022-08-22T19:46:01.777Z,3.58
2022-08-22T19:49:06.912Z,3.85
2022-08-22T19:52:54.091Z,4.38
2022-08-22T19:56:30.373Z,3.88
2022-08-22T19:59:54.419Z,4.35
2022-08-22T20:03:09.237Z,4.40
2022-08-22T20:06:44.937Z,4.90
2022-08-22T20:09:50.145Z,4.63
2022-08-22T20:13:03.944Z,4.43
2022-08-22T20:16:43.374Z,4.45
2022-08-22T20:23:28.042Z,5.22
2022-08-22T20:26:30.687Z,5.00
2022-08-22T20:29:36.105Z,5.25
2022-08-22T20:32:50.468Z,5.05
2022-08-22T20:35:55.972Z,4.90
2022-08-22T20:39:02.774Z,5.47
2022-08-22T20:42:12.653Z,5.05
2022-08-22T20:45:20.745Z,5.30
2022-08-22T20:48:23.049Z,5.80
2022-08-22T20:51:28.628Z,5.10
2022-08-22T20:54:34.783Z,4.90
2022-08-22T20:57:52.300Z,4.70
2022-08-22T21:00:57.051Z,4.70
2022-08-22T21:03:59.192Z,4.90
2022-08-22T21:07:01.894Z,4.53
2022-08-22T21:10:26.771Z,4.38
2022-08-22T21:13:34.209Z,4.10
2022-08-22T21:16:36.258Z,4.40
2022-08-22T21:19:38.279Z,4.38
2022-08-22T21:22:40.291Z,4.68
2022-08-22T21:25:59.953Z,4.28
2022-08-22T21:29:13.990Z,4.15
2022-08-22T21:32:36.782Z,4.60
2022-08-22T21:35:39.668Z,4.22
2022-08-22T21:38:48.328Z,4.45
2022-08-22T21:42:07.594Z,4.53
2022-08-22T21:45:25.601Z,5.10
2022-08-22T21:48:35.890Z,4.15
2022-08-22T21:51:42.333Z,4.10
2022-08-22T21:54:44.367Z,4.25
2022-08-22T21:57:46.365Z,4.93
2022-08-22T22:00:52.975Z,4.57
2022-08-22T22:03:55.434Z,4.78
2022-08-22T22:06:57.450Z,4.82
2022-08-22T22:09:59.469Z,4.70
2022-08-22T22:13:01.484Z,5.07
2022-08-22T22:16:07.030Z,5.47
2022-08-22T22:19:09.068Z,5.45
2022-08-22T22:22:13.660Z,5.72
2022-08-22T22:25:41.291Z,6.30
2022-08-22T22:28:42.527Z,6.05
2022-08-22T22:31:44.541Z,6.35
2022-08-22T22:34:46.552Z,7.05
2022-08-22T22:37:48.554Z,6.30
2022-08-22T22:40:50.896Z,6.82
2022-08-22T22:43:54.556Z,6.75
2022-08-22T22:46:58.143Z,7.03
2022-08-22T22:50:00.190Z,6.93
2022-08-22T22:53:02.192Z,6.80
2022-08-22T22:56:06.651Z,7.28
2022-08-22T22:59:13.708Z,7.28
2022-08-22T23:02:20.769Z,6.32
2022-08-22T23:05:22.815Z,6.43
2022-08-22T23:08:24.877Z,6.20
2022-08-22T23:11:30.049Z,6.65
2022-08-22T23:14:33.052Z,5.97
2022-08-22T23:17:35.471Z,6.80
2022-08-22T23:20:37.598Z,6.20
2022-08-22T23:23:39.771Z,6.57
2022-08-22T23:26:42.211Z,6.90
2022-08-22T23:29:44.263Z,6.43
2022-08-22T23:32:46.336Z,7.10
2022-08-22T23:35:48.346Z,6.40
2022-08-22T23:38:52.001Z,6.15
2022-08-22T23:41:54.611Z,6.20
2022-08-22T23:44:56.636Z,5.85
2022-08-22T23:47:58.766Z,6.38
2022-08-22T23:51:00.908Z,6.45
2022-08-22T23:54:04.430Z,6.45
2022-08-22T23:57:12.141Z,6.95
